This is the latest recevied weather packets stored in our database for station/object AA4XD. If no packets are shown the sender has not sent any weather packets the latest 10 day(s).
| Time | Temp. | Humidity | Pressure | Rain* | Wind** | Luminosity | Snow |
|---|---|---|---|---|---|---|---|
| 1777777474 | 15.56° C | 91% | 1013.9 hPa | 0 mm | - | 0 W/m² | - |
| 1777777171 | 16.11° C | 91% | 1014 hPa | 0 mm | - | 0 W/m² | - |
| 1777776868 | 16.11° C | 90% | 1013.8 hPa | 0 mm | - | 0 W/m² | - |
| 1777776566 | 16.11° C | 90% | 1014 hPa | 0 mm | - | 0 W/m² | - |
| 1777776262 | 16.67° C | 89% | 1013.8 hPa | 0 mm | - | 0 W/m² | - |
| 1777775959 | 16.67° C | 89% | 1013.8 hPa | 0 mm | - | 0 W/m² | - |
| 1777775656 | 16.67° C | 88% | 1014 hPa | 0 mm | - | 0 W/m² | - |
| 1777775353 | 16.67° C | 87% | 1013.6 hPa | 0 mm | - | 0 W/m² | - |
| 1777775048 | 16.67° C | 87% | 1013.6 hPa | 0 mm | - | 0 W/m² | - |
| 1777774440 | 17.22° C | 87% | 1013 hPa | 0 mm | - | 0 W/m² | - |
| 1777774138 | 17.22° C | 87% | 1013.3 hPa | 0 mm | - | 0 W/m² | - |
| 1777773532 | 17.22° C | 87% | 1013 hPa | 0 mm | - | 0 W/m² | - |
| 1777773229 | 17.22° C | 88% | 1013.1 hPa | 0 mm | - | 0 W/m² | - |
| 1777772320 | 16.67° C | 90% | 1012.7 hPa | 0 mm | - | 0 W/m² | - |
| 1777771714 | 16.67° C | 91% | 1012.7 hPa | 0 mm | - | 0 W/m² | - |
| 1777771412 | 16.67° C | 90% | 1012.7 hPa | 0 mm | - | 0 W/m² | - |
| 1777770199 | 17.22° C | 90% | 1012.8 hPa | 0 mm | - | 0 W/m² | - |
| 1777768381 | 17.78° C | 88% | 1012 hPa | 0 mm | - | 0 W/m² | - |
| 1777768078 | 17.78° C | 88% | 1012.2 hPa | 0 mm | - | 0 W/m² | - |
| 1777767167 | 17.78° C | 88% | 1011.7 hPa | 0 mm | - | 1 W/m² | - |
| 1777765653 | 17.78° C | 88% | 1011.7 hPa | 0 mm | - | 5 W/m² | - |
| 1777765046 | 17.78° C | 89% | 1011.3 hPa | 0 mm | - | 12 W/m² | - |
| 1777764439 | 18.33° C | 88% | 1011 hPa | 0 mm | - | 9 W/m² | - |
| 1777763833 | 18.33° C | 88% | 1010.6 hPa | 0 mm | - | 17 W/m² | - |
| 1777761713 | 20° C | 86% | 1009.9 hPa | 0 mm | - | 75 W/m² | - |
* Rain latest hour (hover to see other rain measurements)
** Current wind speed in m/s (hover to see current wind gust speed)